createdAt,value
2023-03-16T00:01:09.986Z,97649.22
2023-03-16T00:03:38.410Z,97643.34
2023-03-16T00:06:07.368Z,97645.22
2023-03-16T00:08:36.936Z,97644.91
2023-03-16T00:11:08.613Z,97646.06
2023-03-16T00:13:36.940Z,97639.88
2023-03-16T00:16:05.630Z,97652.84
2023-03-16T00:18:38.998Z,97648.31
2023-03-16T00:21:07.964Z,97653.69
2023-03-16T00:23:37.699Z,97658.94
2023-03-16T00:26:08.997Z,97650.47
2023-03-16T00:28:37.712Z,97652.59
2023-03-16T00:31:07.118Z,97654.66
2023-03-16T00:33:36.015Z,97672.72
2023-03-16T00:36:09.449Z,97667.53
2023-03-16T00:38:39.330Z,97667.34
2023-03-16T00:41:09.700Z,97669.72
2023-03-16T00:43:41.843Z,97678.72
2023-03-16T00:46:11.623Z,97679.09
2023-03-16T00:48:42.679Z,97680.31
2023-03-16T00:51:14.938Z,97681.44
2023-03-16T00:53:44.851Z,97690.91
2023-03-16T00:56:15.358Z,97680.16
2023-03-16T00:58:44.260Z,97687.31
2023-03-16T01:01:14.981Z,97691.00
2023-03-16T01:03:44.614Z,97689.44
2023-03-16T01:06:15.288Z,97683.91
2023-03-16T01:08:43.758Z,97684.13
2023-03-16T01:11:16.652Z,97683.38
2023-03-16T01:13:47.184Z,97674.56
2023-03-16T01:16:16.057Z,97683.41
2023-03-16T01:18:44.399Z,97700.84
2023-03-16T01:21:14.880Z,97692.66
2023-03-16T01:23:44.334Z,97692.66
2023-03-16T01:26:17.802Z,97691.16
2023-03-16T01:28:48.351Z,97685.91
2023-03-16T01:31:17.162Z,97686.56
2023-03-16T01:33:45.894Z,97685.34
2023-03-16T01:36:20.111Z,97690.34
2023-03-16T01:38:55.530Z,97689.94
2023-03-16T01:41:28.267Z,97685.09
2023-03-16T01:43:58.648Z,97688.19
2023-03-16T01:46:29.589Z,97688.34
2023-03-16T01:49:06.981Z,97691.50
2023-03-16T01:51:40.110Z,97693.31
2023-03-16T01:54:14.855Z,97690.97
2023-03-16T01:56:47.107Z,97689.16
2023-03-16T01:59:17.685Z,97690.13
2023-03-16T02:01:48.772Z,97700.75
2023-03-16T02:04:39.995Z,97700.06
2023-03-16T02:07:10.195Z,97701.94
2023-03-16T02:09:42.858Z,97701.34
2023-03-16T02:12:18.573Z,97714.03
2023-03-16T02:14:52.785Z,97719.53
2023-03-16T02:17:23.849Z,97715.63
2023-03-16T02:20:01.187Z,97717.06
2023-03-16T02:22:30.289Z,97717.06
2023-03-16T02:24:58.694Z,97728.88
2023-03-16T02:27:36.410Z,97720.41
2023-03-16T02:30:09.729Z,97725.34
2023-03-16T02:32:45.888Z,97735.34
2023-03-16T02:35:14.467Z,97734.88
2023-03-16T02:37:43.686Z,97735.53
2023-03-16T02:40:22.388Z,97731.19
2023-03-16T02:42:56.818Z,97728.75
2023-03-16T02:45:29.186Z,97734.00
2023-03-16T02:47:58.002Z,97725.63
2023-03-16T02:50:26.450Z,97733.69
2023-03-16T02:52:54.907Z,97732.75
2023-03-16T02:55:23.476Z,97743.88
2023-03-16T02:57:52.379Z,97735.03
2023-03-16T03:00:22.642Z,97742.16
2023-03-16T03:02:54.182Z,97735.28
2023-03-16T03:05:22.520Z,97745.31
2023-03-16T03:07:51.391Z,97750.16
2023-03-16T03:10:20.095Z,97745.91
2023-03-16T03:12:49.832Z,97752.78
2023-03-16T03:15:19.123Z,97755.44
2023-03-16T03:18:04.155Z,97760.75
2023-03-16T03:20:33.293Z,97767.72
2023-03-16T03:23:03.185Z,97769.16
2023-03-16T03:25:34.972Z,97768.00
2023-03-16T03:28:06.047Z,97770.47
2023-03-16T03:30:34.461Z,97765.75
2023-03-16T03:33:04.456Z,97776.22
2023-03-16T03:35:33.024Z,97777.34
2023-03-16T03:38:01.787Z,97777.31
2023-03-16T03:40:30.546Z,97782.56
2023-03-16T03:43:02.842Z,97787.25
2023-03-16T03:45:32.836Z,97792.75
2023-03-16T03:48:01.214Z,97796.72
2023-03-16T03:50:30.949Z,97785.97
2023-03-16T03:53:19.848Z,97801.69
2023-03-16T03:56:11.102Z,97800.16
2023-03-16T03:58:41.091Z,97804.34
2023-03-16T04:01:10.324Z,97811.16
2023-03-16T04:03:38.789Z,97810.31
2023-03-16T04:06:10.247Z,97805.13
2023-03-16T04:08:38.605Z,97821.38
2023-03-16T04:11:11.992Z,97805.94
2023-03-16T04:13:41.652Z,97817.31
2023-03-16T04:16:10.783Z,97823.38
2023-03-16T04:18:45.498Z,97832.13
2023-03-16T04:21:17.193Z,97833.91
2023-03-16T04:23:48.294Z,97830.84
2023-03-16T04:26:17.998Z,97834.28
2023-03-16T04:28:49.022Z,97832.66
2023-03-16T04:31:20.372Z,97829.78
2023-03-16T04:33:49.559Z,97838.38
2023-03-16T04:36:19.660Z,97844.47
2023-03-16T04:38:47.965Z,97846.84
2023-03-16T04:41:18.259Z,97843.28
2023-03-16T04:43:55.440Z,97850.94
2023-03-16T04:46:26.906Z,97858.94
2023-03-16T04:48:59.277Z,97865.13
2023-03-16T04:51:31.610Z,97863.03
2023-03-16T04:54:11.512Z,97865.03
2023-03-16T04:56:42.791Z,97863.09
2023-03-16T05:00:14.044Z,97859.63
2023-03-16T05:02:48.861Z,97873.50
2023-03-16T05:05:17.923Z,97864.88
2023-03-16T05:07:47.829Z,97865.44
2023-03-16T05:10:18.919Z,97868.56
2023-03-16T05:12:48.316Z,97871.69
2023-03-16T05:15:17.050Z,97878.13
2023-03-16T05:17:49.345Z,97873.75
2023-03-16T05:20:18.237Z,97885.31
2023-03-16T05:22:53.571Z,97890.59
2023-03-16T05:25:29.396Z,97892.50
2023-03-16T05:28:00.449Z,97902.72
2023-03-16T05:30:54.993Z,97903.19
2023-03-16T05:33:28.032Z,97897.66
2023-03-16T05:36:03.866Z,97891.22
2023-03-16T05:38:36.846Z,97889.19
2023-03-16T05:41:09.593Z,97884.22
2023-03-16T05:43:58.820Z,97888.56
2023-03-16T05:46:33.568Z,97893.19
2023-03-16T05:49:04.995Z,97893.44
2023-03-16T05:51:33.469Z,97895.19
2023-03-16T05:54:05.359Z,97894.06
2023-03-16T06:00:46.849Z,97888.75
2023-03-16T06:04:27.301Z,97892.25
2023-03-16T06:07:07.108Z,97898.75
2023-03-16T06:10:05.256Z,97906.69
2023-03-16T06:19:42.211Z,97914.97
2023-03-16T06:22:11.316Z,97922.56
2023-03-16T06:24:41.484Z,97925.03
2023-03-16T06:27:11.761Z,97930.31
2023-03-16T06:29:55.360Z,97937.03
2023-03-16T06:32:23.882Z,97929.75
2023-03-16T06:34:52.706Z,97940.97
2023-03-16T06:37:21.880Z,97936.94
2023-03-16T06:39:51.120Z,97937.16
2023-03-16T06:42:20.988Z,97942.00
2023-03-16T06:44:49.390Z,97941.03
2023-03-16T06:47:19.762Z,97944.41
2023-03-16T06:49:48.211Z,97952.81
2023-03-16T06:52:21.290Z,97954.34
2023-03-16T06:54:49.850Z,97952.81
2023-03-16T06:57:21.415Z,97955.16
2023-03-16T06:59:52.346Z,97950.63
2023-03-16T07:02:23.620Z,97947.75
2023-03-16T07:04:52.626Z,97947.09
2023-03-16T07:07:21.999Z,97949.63
2023-03-16T07:09:50.345Z,97958.91
2023-03-16T07:12:20.121Z,97952.31
2023-03-16T07:14:51.800Z,97957.00
2023-03-16T07:17:23.811Z,97951.59
2023-03-16T07:19:52.738Z,97957.53
2023-03-16T07:22:22.139Z,97958.44
2023-03-16T07:24:56.169Z,97949.03
2023-03-16T07:27:27.553Z,97945.78
2023-03-16T07:29:56.406Z,97953.19
2023-03-16T07:32:24.929Z,97942.22
2023-03-16T07:34:53.759Z,97942.78
2023-03-16T07:37:25.865Z,97944.28
2023-03-16T07:39:58.878Z,97950.88
2023-03-16T07:42:29.600Z,97943.13
2023-03-16T07:45:05.539Z,97951.59
2023-03-16T07:47:34.780Z,97949.06
2023-03-16T07:50:13.467Z,97945.91
2023-03-16T07:57:21.744Z,97946.19
2023-03-16T07:59:53.352Z,97948.97
2023-03-16T08:02:22.806Z,97957.38
2023-03-16T08:04:51.794Z,97959.78
2023-03-16T08:07:20.509Z,97959.63
2023-03-16T08:10:12.525Z,97956.72
2023-03-16T08:12:46.666Z,97957.84
2023-03-16T08:15:16.742Z,97956.38
2023-03-16T08:17:45.912Z,97951.84
2023-03-16T08:20:20.208Z,97957.81
2023-03-16T08:22:49.763Z,97955.75
2023-03-16T08:25:21.884Z,97953.88
2023-03-16T08:28:06.351Z,97948.16
2023-03-16T08:30:36.420Z,97954.94
2023-03-16T08:33:22.579Z,97953.03
2023-03-16T08:35:52.402Z,97958.41
2023-03-16T08:38:23.062Z,97964.66
2023-03-16T08:40:53.186Z,97962.84
2023-03-16T08:43:24.071Z,97962.22
2023-03-16T08:45:56.044Z,97960.72
2023-03-16T08:48:28.874Z,97958.59
2023-03-16T08:50:57.297Z,97952.91
2023-03-16T08:53:25.566Z,97948.66
2023-03-16T08:55:53.854Z,97962.47
2023-03-16T08:58:22.574Z,97959.84
2023-03-16T09:00:50.891Z,97968.75
2023-03-16T09:03:21.650Z,97959.72
2023-03-16T09:05:49.920Z,97970.06
2023-03-16T09:08:18.571Z,97966.06
2023-03-16T09:10:47.097Z,97954.28
2023-03-16T09:13:16.407Z,97966.06
2023-03-16T09:15:44.731Z,97966.44
2023-03-16T09:18:13.772Z,97962.28
2023-03-16T09:20:43.911Z,97960.66
2023-03-16T09:23:14.124Z,97971.38
2023-03-16T09:25:42.672Z,97963.25
2023-03-16T09:28:11.404Z,97963.25
2023-03-16T09:30:39.717Z,97967.09
2023-03-16T09:33:08.225Z,97954.63
2023-03-16T09:35:37.195Z,97964.81
2023-03-16T09:38:07.352Z,97966.72
2023-03-16T09:40:36.485Z,97967.16
2023-03-16T09:43:24.443Z,97969.53
2023-03-16T09:45:59.953Z,97969.25
2023-03-16T09:48:34.003Z,97973.31
2023-03-16T09:51:03.683Z,97970.25
2023-03-16T09:53:35.680Z,97976.47
2023-03-16T09:56:06.265Z,97967.28
2023-03-16T09:58:34.701Z,97964.84
2023-03-16T10:01:10.879Z,97973.69
2023-03-16T10:04:00.813Z,97965.31
2023-03-16T10:06:29.596Z,97973.25
2023-03-16T10:09:05.828Z,97962.19
2023-03-16T10:11:37.286Z,97968.16
2023-03-16T10:14:17.679Z,97968.25
2023-03-16T10:16:50.623Z,97967.31
2023-03-16T10:19:21.665Z,97969.72
2023-03-16T10:21:50.566Z,97965.50
2023-03-16T10:24:29.917Z,97974.69
2023-03-16T10:27:00.672Z,97970.00
2023-03-16T10:29:32.582Z,97964.66
2023-03-16T10:32:03.459Z,97957.00
2023-03-16T10:34:32.434Z,97951.81
2023-03-16T10:37:03.079Z,97944.00
2023-03-16T10:39:43.072Z,97947.41
2023-03-16T10:42:17.969Z,97958.69
2023-03-16T10:44:46.733Z,97958.72
2023-03-16T10:47:20.115Z,97952.69
2023-03-16T10:49:51.398Z,97952.66
2023-03-16T10:52:22.323Z,97950.94
2023-03-16T10:54:54.565Z,97957.78
2023-03-16T10:57:26.633Z,97952.69
2023-03-16T10:59:56.885Z,97957.88
2023-03-16T11:02:31.982Z,97958.69
2023-03-16T11:05:01.037Z,97966.50
2023-03-16T11:07:29.474Z,97955.25
2023-03-16T11:09:59.821Z,97954.38
2023-03-16T11:12:30.828Z,97952.59
2023-03-16T11:15:07.501Z,97954.38
2023-03-16T11:17:41.578Z,97948.38
2023-03-16T11:20:17.746Z,97950.97
2023-03-16T11:22:47.303Z,97949.22
2023-03-16T11:25:21.752Z,97938.03
2023-03-16T11:27:54.251Z,97944.91
2023-03-16T11:30:29.088Z,97936.28
2023-03-16T11:33:00.411Z,97937.06
2023-03-16T11:35:34.840Z,97941.47
2023-03-16T11:38:14.381Z,97931.97
2023-03-16T11:40:54.060Z,97933.66
2023-03-16T11:43:54.160Z,97935.28
2023-03-16T11:46:25.478Z,97927.53
2023-03-16T11:49:02.263Z,97929.25
2023-03-16T11:51:37.893Z,97925.06
2023-03-16T11:54:18.647Z,97925.06
2023-03-16T11:56:51.737Z,97924.16
2023-03-16T11:59:46.277Z,97913.66
2023-03-16T12:02:43.855Z,97918.06
2023-03-16T12:05:43.869Z,97911.13
2023-03-16T12:08:30.705Z,97902.34
2023-03-16T12:11:02.670Z,97895.78
2023-03-16T12:13:40.188Z,97889.22
2023-03-16T12:16:12.933Z,97895.44
2023-03-16T12:18:44.838Z,97883.19
2023-03-16T12:21:16.002Z,97886.84
2023-03-16T12:23:58.666Z,97876.63
2023-03-16T12:26:30.351Z,97884.28
2023-03-16T12:29:01.349Z,97882.06
2023-03-16T12:31:37.766Z,97883.25
2023-03-16T12:34:11.133Z,97879.47
2023-03-16T12:36:58.338Z,97874.97
2023-03-16T12:39:37.496Z,97875.72
2023-03-16T12:42:16.772Z,97868.41
2023-03-16T12:44:49.322Z,97864.56
2023-03-16T12:47:24.186Z,97867.84
2023-03-16T12:49:53.114Z,97851.22
2023-03-16T12:52:21.673Z,97856.59
2023-03-16T12:54:54.261Z,97855.09
2023-03-16T12:57:27.130Z,97851.97
2023-03-16T13:00:00.611Z,97846.69
2023-03-16T13:02:32.040Z,97842.53
2023-03-16T13:05:02.964Z,97841.97
2023-03-16T13:07:32.690Z,97836.72
2023-03-16T13:10:08.348Z,97839.16
2023-03-16T13:12:38.472Z,97834.63
2023-03-16T13:15:29.977Z,97836.31
2023-03-16T13:18:08.204Z,97834.25
2023-03-16T13:20:50.954Z,97829.47
2023-03-16T13:23:24.861Z,97828.91
2023-03-16T13:26:06.863Z,97834.34
2023-03-16T13:28:38.860Z,97828.91
2023-03-16T13:31:21.749Z,97830.41
2023-03-16T13:33:51.698Z,97817.97
2023-03-16T13:36:20.886Z,97824.97
2023-03-16T13:38:57.749Z,97824.13
2023-03-16T13:41:26.124Z,97820.63
2023-03-16T13:43:54.354Z,97830.78
2023-03-16T13:46:30.179Z,97832.63
2023-03-16T13:49:02.347Z,97827.31
2023-03-16T13:51:32.103Z,97823.94
2023-03-16T13:54:00.605Z,97816.72
2023-03-16T13:56:31.857Z,97821.75
2023-03-16T13:59:01.142Z,97828.34
2023-03-16T14:01:32.894Z,97822.03
2023-03-16T14:04:08.620Z,97825.88
2023-03-16T14:06:38.175Z,97825.97
2023-03-16T14:09:09.381Z,97827.78
2023-03-16T14:11:37.771Z,97825.22
2023-03-16T14:14:16.045Z,97821.97
2023-03-16T14:16:45.870Z,97817.69
2023-03-16T14:19:19.731Z,97819.03
2023-03-16T14:21:48.356Z,97816.66
2023-03-16T14:24:26.416Z,97810.09
2023-03-16T14:26:55.018Z,97813.75
2023-03-16T14:29:27.673Z,97813.25
2023-03-16T14:31:57.908Z,97817.50
2023-03-16T14:34:30.796Z,97816.56
2023-03-16T14:37:19.363Z,97817.56
2023-03-16T14:39:48.005Z,97811.69
2023-03-16T14:42:21.540Z,97819.00
2023-03-16T14:44:52.691Z,97817.72
2023-03-16T14:47:25.809Z,97826.38
2023-03-16T14:49:54.239Z,97821.81
2023-03-16T14:52:27.340Z,97817.19
2023-03-16T14:54:55.876Z,97814.13
2023-03-16T14:57:24.596Z,97819.59
2023-03-16T14:59:52.910Z,97830.56
2023-03-16T15:02:25.459Z,97820.50
2023-03-16T15:04:54.893Z,97817.38
2023-03-16T15:07:26.669Z,97813.84
2023-03-16T15:09:56.160Z,97820.56
2023-03-16T15:12:26.354Z,97821.16
2023-03-16T15:15:12.485Z,97823.72
2023-03-16T15:17:42.520Z,97823.84
2023-03-16T15:20:13.249Z,97826.53
2023-03-16T15:23:06.205Z,97825.06
2023-03-16T15:25:37.891Z,97830.63
2023-03-16T15:28:13.704Z,97828.78
2023-03-16T15:30:43.385Z,97829.69
2023-03-16T15:33:14.154Z,97834.00
2023-03-16T15:35:44.606Z,97831.25
2023-03-16T15:38:19.466Z,97834.63
2023-03-16T15:40:54.130Z,97834.72
2023-03-16T15:43:25.164Z,97839.91
2023-03-16T15:45:54.298Z,97841.19
2023-03-16T15:48:28.400Z,97841.75
2023-03-16T15:50:58.915Z,97840.03
2023-03-16T15:53:32.244Z,97837.53
2023-03-16T15:56:04.368Z,97843.00
2023-03-16T15:58:35.350Z,97842.97
2023-03-16T16:01:05.775Z,97843.00
2023-03-16T16:03:38.190Z,97843.78
2023-03-16T16:06:17.860Z,97845.56
2023-03-16T16:08:48.204Z,97851.50
2023-03-16T16:11:25.145Z,97855.06
2023-03-16T16:13:58.253Z,97860.25
2023-03-16T16:16:29.471Z,97855.91
2023-03-16T16:19:03.523Z,97857.69
2023-03-16T16:21:35.333Z,97866.31
2023-03-16T16:24:04.627Z,97862.97
2023-03-16T16:29:27.922Z,97866.44
2023-03-16T16:31:56.478Z,97862.09
2023-03-16T16:34:29.187Z,97873.22
2023-03-16T16:37:00.798Z,97879.97
2023-03-16T16:39:32.956Z,97883.38
2023-03-16T16:42:01.958Z,97889.22
2023-03-16T16:44:36.910Z,97883.16
2023-03-16T16:47:21.287Z,97891.47
2023-03-16T16:49:53.554Z,97882.69
2023-03-16T16:52:22.806Z,97888.53
2023-03-16T16:54:51.990Z,97889.94
2023-03-16T16:57:21.598Z,97891.25
2023-03-16T16:59:51.495Z,97894.38
2023-03-16T17:02:25.527Z,97896.81
2023-03-16T17:04:57.016Z,97899.09
2023-03-16T17:07:25.955Z,97903.47
2023-03-16T17:10:01.477Z,97911.13
2023-03-16T17:12:29.802Z,97913.19
2023-03-16T17:14:59.059Z,97913.69
2023-03-16T17:17:27.617Z,97920.16
2023-03-16T17:20:06.598Z,97930.94
2023-03-16T17:22:36.731Z,97937.91
2023-03-16T17:25:15.200Z,97942.78
2023-03-16T17:27:49.015Z,97943.50
2023-03-16T17:30:23.946Z,97950.19
2023-03-16T17:32:55.295Z,97959.19
2023-03-16T17:35:28.277Z,97966.63
2023-03-16T17:38:01.096Z,97961.22
2023-03-16T17:40:32.549Z,97973.00
2023-03-16T17:43:03.226Z,97976.25
2023-03-16T17:45:33.165Z,97976.84
2023-03-16T17:48:03.046Z,97967.13
2023-03-16T17:50:35.622Z,97971.94
2023-03-16T17:53:05.715Z,97979.41
2023-03-16T17:55:39.335Z,97987.59
2023-03-16T17:58:25.087Z,97991.59
2023-03-16T18:00:57.143Z,97992.25
2023-03-16T18:03:31.018Z,98001.50
2023-03-16T18:06:06.208Z,98009.72
2023-03-16T18:08:37.170Z,98013.78
2023-03-16T18:11:15.264Z,98009.13
2023-03-16T18:13:45.545Z,98014.16
2023-03-16T18:16:20.442Z,98015.69
2023-03-16T18:18:53.594Z,98017.22
2023-03-16T18:21:26.307Z,98009.88
2023-03-16T18:23:57.887Z,98012.44
2023-03-16T18:26:29.704Z,97997.66
2023-03-16T18:29:01.287Z,97996.75
2023-03-16T18:31:31.149Z,97996.75
2023-03-16T18:34:04.161Z,98005.88
2023-03-16T18:36:41.720Z,98008.31
2023-03-16T18:39:20.145Z,98017.41
2023-03-16T18:41:51.317Z,98019.91
2023-03-16T18:44:23.558Z,98028.41
2023-03-16T18:46:57.462Z,98028.16
2023-03-16T18:49:34.595Z,98036.69
2023-03-16T18:52:14.257Z,98037.88
2023-03-16T18:54:46.794Z,98042.16
2023-03-16T18:57:19.932Z,98050.94
2023-03-16T18:59:51.945Z,98053.41
2023-03-16T19:02:30.710Z,98052.31
2023-03-16T19:05:05.191Z,98053.84
2023-03-16T19:07:40.423Z,98062.09
2023-03-16T19:10:24.071Z,98062.53
2023-03-16T19:12:55.601Z,98068.47
2023-03-16T19:15:32.385Z,98070.34
2023-03-16T19:18:03.494Z,98075.09
2023-03-16T19:20:40.227Z,98071.50
2023-03-16T19:23:22.107Z,98074.25
2023-03-16T19:25:55.430Z,98082.88
2023-03-16T19:28:30.207Z,98084.72
2023-03-16T19:31:02.656Z,98087.22
2023-03-16T19:33:34.378Z,98086.91
2023-03-16T19:36:05.990Z,98099.31
2023-03-16T19:38:42.141Z,98097.34
2023-03-16T19:41:23.813Z,98099.47
2023-03-16T19:44:00.346Z,98106.13
2023-03-16T19:46:32.316Z,98107.72
2023-03-16T19:49:04.486Z,98114.38
2023-03-16T19:51:34.425Z,98115.94
2023-03-16T19:54:24.036Z,98115.31
2023-03-16T19:56:57.474Z,98111.88
2023-03-16T19:59:31.482Z,98118.59
2023-03-16T20:02:03.334Z,98114.78
2023-03-16T20:04:35.733Z,98121.63
2023-03-16T20:07:14.666Z,98113.97
2023-03-16T20:09:53.377Z,98117.16
2023-03-16T20:12:28.018Z,98124.81
2023-03-16T20:15:00.222Z,98118.50
2023-03-16T20:17:34.660Z,98131.03
2023-03-16T20:20:06.581Z,98125.63
2023-03-16T20:22:44.345Z,98123.25
2023-03-16T20:25:18.511Z,98137.03
2023-03-16T20:27:52.547Z,98127.94
2023-03-16T20:30:27.735Z,98129.56
2023-03-16T20:33:00.451Z,98129.91
2023-03-16T20:35:34.109Z,98137.19
2023-03-16T20:38:06.644Z,98131.91
2023-03-16T20:40:42.573Z,98130.75
2023-03-16T20:43:26.501Z,98129.91
2023-03-16T20:46:03.690Z,98140.03
2023-03-16T20:48:34.341Z,98138.25
2023-03-16T20:51:09.908Z,98136.03
2023-03-16T20:53:42.293Z,98139.44
2023-03-16T20:56:18.661Z,98137.22
2023-03-16T20:58:50.162Z,98138.56
2023-03-16T21:01:29.982Z,98145.03
2023-03-16T21:04:00.641Z,98141.38
2023-03-16T21:06:32.465Z,98135.78
2023-03-16T21:09:03.771Z,98135.97
2023-03-16T21:11:41.776Z,98131.13
2023-03-16T21:14:23.511Z,98131.41
2023-03-16T21:16:53.361Z,98134.16
2023-03-16T21:19:24.553Z,98128.13
2023-03-16T21:21:54.504Z,98131.19
2023-03-16T21:24:23.454Z,98126.56
2023-03-16T21:26:54.715Z,98129.94
2023-03-16T21:29:24.315Z,98127.03
2023-03-16T21:31:58.588Z,98134.78
2023-03-16T21:34:36.144Z,98139.31
2023-03-16T21:37:15.284Z,98128.34
2023-03-16T21:39:45.729Z,98147.44
2023-03-16T21:43:01.072Z,98148.75
2023-03-16T21:45:44.529Z,98147.50
2023-03-16T21:48:24.169Z,98142.13
2023-03-16T21:51:02.245Z,98135.09
2023-03-16T21:53:33.877Z,98138.47
2023-03-16T21:56:02.187Z,98136.56
2023-03-16T21:58:30.596Z,98133.50
2023-03-16T22:01:11.944Z,98138.38
2023-03-16T22:03:51.585Z,98131.59
2023-03-16T22:06:21.915Z,98133.03
2023-03-16T22:08:51.931Z,98140.25
2023-03-16T22:11:25.267Z,98141.53
2023-03-16T22:14:12.627Z,98141.00
2023-03-16T22:16:42.666Z,98133.59
2023-03-16T22:19:23.277Z,98138.19
2023-03-16T22:21:53.918Z,98141.53
2023-03-16T22:24:33.247Z,98135.34
2023-03-16T22:27:30.970Z,98137.97
2023-03-16T22:30:11.988Z,98134.44
2023-03-16T22:32:48.483Z,98136.44
2023-03-16T22:35:28.575Z,98137.59
2023-03-16T22:38:10.106Z,98142.94
2023-03-16T22:40:43.173Z,98142.09
2023-03-16T22:43:36.266Z,98130.31
2023-03-16T22:46:08.458Z,98125.16
2023-03-16T22:48:41.456Z,98124.00
2023-03-16T22:51:30.847Z,98129.28
2023-03-16T22:57:23.813Z,98125.38
2023-03-16T22:59:56.123Z,98124.53
2023-03-16T23:02:32.348Z,98138.28
2023-03-16T23:05:02.109Z,98124.81
2023-03-16T23:07:41.625Z,98124.38
2023-03-16T23:10:23.628Z,98126.50
2023-03-16T23:12:57.466Z,98130.75
2023-03-16T23:15:35.777Z,98120.53
2023-03-16T23:18:19.096Z,98117.22
2023-03-16T23:20:54.806Z,98110.56
2023-03-16T23:23:27.844Z,98114.97
2023-03-16T23:25:58.356Z,98112.66
2023-03-16T23:28:29.221Z,98106.78
2023-03-16T23:30:57.515Z,98107.28
2023-03-16T23:33:27.165Z,98108.03
2023-03-16T23:35:57.208Z,98102.50
2023-03-16T23:38:26.150Z,98107.84
2023-03-16T23:40:54.656Z,98104.84
2023-03-16T23:43:23.028Z,98116.91
2023-03-16T23:45:51.321Z,98111.91
2023-03-16T23:48:21.878Z,98113.78
2023-03-16T23:50:52.362Z,98120.31
2023-03-16T23:53:22.815Z,98125.94
2023-03-16T23:55:51.593Z,98125.56
2023-03-16T23:58:20.218Z,98127.75
